Terminal Aerodrome Forecast
Issued by NWS Cheyenne, WY

Home | Current Version | Previous Version | Text Only | Print | Product List | Glossary On
Versions: 1 2 3 4 5 6 7 8 9 10 11 12 13 14 15 16
000
FTUS45 KCYS 231133
TAFCYS
TAF
KCYS 231133Z 2312/2412 29006KT P6SM SCT150
     FM232100 35008KT P6SM VCTS BKN100CB
     FM240100 26008KT P6SM SCT120=

USA.gov is the U.S. government's official web portal to all federal, state and local government web resources and services.